createdAt,value
2022-11-08T00:01:38.428Z,3.15
2022-11-08T00:04:09.267Z,2.92
2022-11-08T00:06:54.290Z,2.65
2022-11-08T00:09:39.177Z,3.00
2022-11-08T00:12:24.772Z,3.10
2022-11-08T00:14:51.488Z,3.28
2022-11-08T00:17:18.546Z,3.05
2022-11-08T00:19:45.152Z,2.95
2022-11-08T00:22:12.488Z,3.88
2022-11-08T00:27:06.641Z,4.85
2022-11-08T00:29:36.143Z,3.22
2022-11-08T00:32:06.744Z,2.55
2022-11-08T00:34:33.705Z,3.15
2022-11-08T00:37:00.165Z,3.08
2022-11-08T00:39:26.566Z,3.70
2022-11-08T00:41:52.942Z,3.08
2022-11-08T00:44:19.366Z,3.10
2022-11-08T00:46:45.857Z,2.67
2022-11-08T00:49:12.237Z,2.93
2022-11-08T00:51:39.671Z,2.83
2022-11-08T00:56:32.699Z,3.13
2022-11-08T00:58:59.471Z,2.85
2022-11-08T01:01:26.216Z,2.72
2022-11-08T01:03:53.511Z,2.80
2022-11-08T01:06:20.483Z,2.97
2022-11-08T01:08:46.869Z,3.45
2022-11-08T01:11:17.582Z,2.67
2022-11-08T01:13:43.940Z,2.60
2022-11-08T01:16:14.616Z,2.75
2022-11-08T01:18:41.289Z,2.65
2022-11-08T01:21:09.001Z,2.47
2022-11-08T01:23:36.478Z,3.00
2022-11-08T01:26:07.738Z,2.85
2022-11-08T01:28:34.567Z,2.50
2022-11-08T01:31:12.283Z,2.50
2022-11-08T01:33:39.057Z,2.97
2022-11-08T01:36:06.783Z,2.97
2022-11-08T01:38:34.079Z,3.40
2022-11-08T01:41:00.793Z,2.95
2022-11-08T01:43:30.108Z,2.60
2022-11-08T01:46:11.759Z,2.63
2022-11-08T01:48:44.553Z,3.22
2022-11-08T01:51:11.861Z,2.30
2022-11-08T01:53:38.285Z,2.65
2022-11-08T01:56:04.880Z,2.90
2022-11-08T01:58:32.702Z,2.53
2022-11-08T02:00:59.888Z,3.08
2022-11-08T02:03:27.115Z,3.38
2022-11-08T02:05:53.447Z,2.85
2022-11-08T02:08:31.781Z,2.75
2022-11-08T02:10:58.390Z,2.80
2022-11-08T02:13:26.146Z,2.85
2022-11-08T02:15:52.548Z,2.60
2022-11-08T02:18:20.209Z,2.58
2022-11-08T02:21:05.706Z,2.88
2022-11-08T02:23:51.207Z,3.30
2022-11-08T02:26:18.940Z,3.05
2022-11-08T02:28:46.356Z,4.45
2022-11-08T02:33:39.346Z,3.00
2022-11-08T02:36:06.576Z,3.00
2022-11-08T02:38:34.457Z,3.15
2022-11-08T02:41:00.711Z,2.78
2022-11-08T02:43:27.035Z,2.95
2022-11-08T02:45:53.347Z,3.45
2022-11-08T02:48:20.329Z,2.63
2022-11-08T02:50:47.007Z,3.40
2022-11-08T02:53:13.299Z,2.72
2022-11-08T02:55:39.766Z,2.75
2022-11-08T02:58:06.043Z,2.40
2022-11-08T03:00:32.679Z,2.58
2022-11-08T03:02:59.123Z,2.17
2022-11-08T03:05:26.157Z,2.70
2022-11-08T03:07:53.311Z,2.25
2022-11-08T03:10:20.209Z,2.90
2022-11-08T03:12:46.598Z,2.40
2022-11-08T03:15:13.840Z,2.83
2022-11-08T03:17:40.253Z,3.13
2022-11-08T03:20:07.121Z,2.57
2022-11-08T03:22:33.426Z,2.42
2022-11-08T03:24:59.757Z,2.60
2022-11-08T03:27:26.031Z,2.20
2022-11-08T03:29:52.339Z,2.85
2022-11-08T03:32:18.696Z,2.63
2022-11-08T03:34:45.013Z,2.75
2022-11-08T03:37:12.360Z,2.22
2022-11-08T03:39:38.684Z,2.40
2022-11-08T03:42:04.968Z,2.90
2022-11-08T03:44:31.802Z,2.50
2022-11-08T03:46:58.688Z,2.78
2022-11-08T03:49:25.221Z,2.60
2022-11-08T03:51:51.548Z,2.57
2022-11-08T03:54:17.800Z,3.13
2022-11-08T03:56:44.070Z,2.63
2022-11-08T03:59:13.579Z,2.35
2022-11-08T04:01:40.363Z,2.65
2022-11-08T04:04:06.937Z,2.42
2022-11-08T04:06:33.216Z,2.40
2022-11-08T04:08:59.579Z,2.97
2022-11-08T04:11:44.355Z,2.53
2022-11-08T04:14:29.764Z,2.50
2022-11-08T04:16:56.113Z,2.70
2022-11-08T04:19:40.900Z,2.42
2022-11-08T04:22:07.751Z,2.13
2022-11-08T04:24:34.317Z,3.08
2022-11-08T04:27:02.052Z,2.15
2022-11-08T04:31:54.652Z,2.65
2022-11-08T04:34:21.049Z,2.20
2022-11-08T04:36:47.370Z,2.30
2022-11-08T04:39:13.639Z,2.20
2022-11-08T04:41:39.930Z,2.80
2022-11-08T04:44:06.265Z,2.60
2022-11-08T04:46:32.605Z,2.53
2022-11-08T04:48:59.983Z,2.47
2022-11-08T04:51:27.807Z,2.88
2022-11-08T04:53:54.647Z,2.97
2022-11-08T04:56:21.448Z,3.58
2022-11-08T04:58:48.917Z,3.85
2022-11-08T05:03:41.745Z,5.35
2022-11-08T05:06:11.326Z,4.07
2022-11-08T05:08:38.690Z,5.20
2022-11-08T05:11:09.375Z,4.03
2022-11-08T05:13:35.808Z,3.92
2022-11-08T05:16:03.288Z,3.55
2022-11-08T05:21:15.301Z,4.65
2022-11-08T05:23:41.669Z,3.85
2022-11-08T05:26:08.411Z,3.47
2022-11-08T05:28:35.108Z,3.45
2022-11-08T05:31:01.805Z,3.60
2022-11-08T05:33:28.229Z,3.30
2022-11-08T05:35:54.690Z,3.47
2022-11-08T05:38:21.549Z,4.32
2022-11-08T05:40:48.050Z,2.90
2022-11-08T05:43:14.573Z,2.58
2022-11-08T05:45:41.425Z,2.95
2022-11-08T05:48:07.673Z,2.80
2022-11-08T05:50:34.875Z,2.47
2022-11-08T05:53:01.578Z,2.45
2022-11-08T05:55:27.982Z,2.78
2022-11-08T05:57:54.428Z,2.40
2022-11-08T06:00:21.791Z,2.40
2022-11-08T06:05:14.318Z,2.65
2022-11-08T06:07:40.568Z,2.58
2022-11-08T06:10:07.155Z,2.30
2022-11-08T06:12:33.742Z,2.30
2022-11-08T06:15:00.060Z,2.05
2022-11-08T06:17:30.127Z,2.67
2022-11-08T06:19:56.691Z,2.58
2022-11-08T06:22:23.113Z,2.40
2022-11-08T06:24:49.443Z,2.20
2022-11-08T06:27:16.263Z,2.67
2022-11-08T06:29:42.518Z,2.58
2022-11-08T06:32:11.933Z,2.50
2022-11-08T06:34:38.273Z,2.15
2022-11-08T06:37:05.217Z,2.20
2022-11-08T06:39:31.554Z,2.40
2022-11-08T06:41:57.900Z,3.15
2022-11-08T06:44:24.234Z,2.50
2022-11-08T06:47:00.435Z,2.20
2022-11-08T06:49:26.720Z,2.22
2022-11-08T06:51:54.196Z,2.50
2022-11-08T06:56:52.515Z,2.72
2022-11-08T06:59:19.830Z,2.28
2022-11-08T07:01:46.730Z,2.05
2022-11-08T07:04:13.179Z,2.43
2022-11-08T07:06:39.587Z,2.40
2022-11-08T07:09:05.867Z,1.92
2022-11-08T07:11:32.179Z,2.38
2022-11-08T07:13:58.500Z,2.45
2022-11-08T07:16:24.829Z,2.83
2022-11-08T07:18:51.396Z,2.40
2022-11-08T07:21:17.970Z,2.30
2022-11-08T07:23:44.334Z,2.13
2022-11-08T07:26:13.117Z,2.05
2022-11-08T07:28:45.319Z,2.33
2022-11-08T07:31:11.748Z,2.03
2022-11-08T07:33:38.008Z,2.38
2022-11-08T07:36:04.418Z,1.70
2022-11-08T07:38:31.061Z,2.53
2022-11-08T07:41:01.369Z,2.88
2022-11-08T07:43:28.397Z,2.13
2022-11-08T07:45:56.795Z,2.35
2022-11-08T07:48:23.710Z,2.10
2022-11-08T07:50:50.304Z,3.08
2022-11-08T07:53:17.037Z,2.70
2022-11-08T07:55:45.055Z,2.55
2022-11-08T07:58:11.800Z,2.10
2022-11-08T08:00:38.928Z,2.10
2022-11-08T08:03:06.206Z,2.42
2022-11-08T08:05:36.855Z,2.22
2022-11-08T08:08:03.871Z,2.00
2022-11-08T08:10:30.711Z,2.55
2022-11-08T08:12:57.412Z,2.30
2022-11-08T08:15:25.305Z,2.90
2022-11-08T08:17:55.828Z,2.20
2022-11-08T08:20:23.184Z,2.25
2022-11-08T08:25:16.577Z,2.20
2022-11-08T08:27:49.469Z,1.92
2022-11-08T08:30:17.689Z,2.17
2022-11-08T08:32:44.979Z,2.08
2022-11-08T08:35:12.689Z,2.15
2022-11-08T08:37:39.223Z,2.60
2022-11-08T08:40:06.024Z,1.73
2022-11-08T08:42:32.751Z,2.15
2022-11-08T08:44:59.421Z,2.70
2022-11-08T08:47:29.133Z,2.13
2022-11-08T08:49:55.486Z,2.13
2022-11-08T08:52:21.811Z,2.20
2022-11-08T08:54:50.186Z,2.50
2022-11-08T08:57:16.551Z,2.20
2022-11-08T09:02:30.277Z,1.95
2022-11-08T09:04:59.109Z,2.17
2022-11-08T09:07:25.429Z,2.10
2022-11-08T09:09:51.726Z,2.70
2022-11-08T09:12:18.055Z,1.98
2022-11-08T09:14:44.495Z,2.08
2022-11-08T09:17:10.813Z,2.43
2022-11-08T09:19:37.207Z,2.22
2022-11-08T09:22:04.578Z,2.00
2022-11-08T09:26:58.856Z,1.98
2022-11-08T09:29:25.134Z,2.30
2022-11-08T09:31:51.397Z,1.95
2022-11-08T09:34:20.750Z,1.80
2022-11-08T09:36:49.324Z,1.73
2022-11-08T09:39:16.486Z,1.77
2022-11-08T09:41:51.427Z,2.10
2022-11-08T09:44:31.133Z,2.15
2022-11-08T09:47:04.932Z,2.20
2022-11-08T09:49:45.436Z,2.00
2022-11-08T09:52:16.304Z,1.85
2022-11-08T09:54:44.144Z,1.98
2022-11-08T09:57:20.286Z,2.30
2022-11-08T09:59:49.308Z,1.83
2022-11-08T10:02:23.516Z,2.00
2022-11-08T10:05:19.385Z,1.85
2022-11-08T10:08:01.920Z,2.00
2022-11-08T10:10:28.237Z,1.92
2022-11-08T10:12:54.706Z,1.98
2022-11-08T10:15:34.513Z,2.38
2022-11-08T10:18:05.697Z,1.90
2022-11-08T10:20:52.580Z,2.22
2022-11-08T10:23:23.672Z,1.92
2022-11-08T10:25:54.996Z,2.20
2022-11-08T10:28:27.712Z,2.08
2022-11-08T10:30:54.554Z,1.67
2022-11-08T10:33:40.101Z,2.33
2022-11-08T10:36:25.584Z,1.98
2022-11-08T10:38:54.892Z,2.20
2022-11-08T10:41:40.365Z,2.00
2022-11-08T10:44:33.196Z,2.20
2022-11-08T10:47:01.091Z,2.20
2022-11-08T10:49:44.947Z,1.90
2022-11-08T10:52:11.373Z,1.90
2022-11-08T10:54:56.922Z,2.10
2022-11-08T10:57:42.129Z,1.98
2022-11-08T11:00:34.781Z,2.00
2022-11-08T11:03:16.003Z,2.10
2022-11-08T11:05:44.157Z,2.30
2022-11-08T11:08:10.455Z,1.80
2022-11-08T11:10:41.197Z,2.03
2022-11-08T11:13:12.538Z,2.22
2022-11-08T11:15:48.341Z,1.83
2022-11-08T11:18:44.233Z,1.90
2022-11-08T11:21:15.689Z,1.98
2022-11-08T11:23:46.340Z,1.92
2022-11-08T11:26:28.861Z,2.17
2022-11-08T11:29:04.467Z,2.03
2022-11-08T11:31:40.638Z,2.08
2022-11-08T11:34:18.957Z,1.70
2022-11-08T11:36:59.367Z,2.08
2022-11-08T11:39:32.279Z,1.60
2022-11-08T11:42:17.860Z,2.17
2022-11-08T11:44:49.090Z,1.55
2022-11-08T11:47:27.599Z,2.15
2022-11-08T11:49:54.228Z,2.20
2022-11-08T11:52:20.528Z,1.83
2022-11-08T11:54:48.017Z,2.20
2022-11-08T11:57:18.730Z,1.85
2022-11-08T11:59:50.982Z,1.73
2022-11-08T12:02:30.335Z,1.80
2022-11-08T12:05:19.994Z,1.92
2022-11-08T12:08:09.327Z,1.90
2022-11-08T12:10:41.843Z,2.10
2022-11-08T12:13:11.181Z,1.67
2022-11-08T12:15:41.615Z,1.92
2022-11-08T12:18:41.051Z,1.92
2022-11-08T12:21:14.877Z,2.22
2022-11-08T12:23:48.009Z,1.70
2022-11-08T12:26:20.526Z,1.70
2022-11-08T12:28:50.923Z,2.30
2022-11-08T12:31:17.984Z,2.05
2022-11-08T12:34:02.588Z,2.10
2022-11-08T12:36:35.381Z,2.03
2022-11-08T12:39:23.681Z,2.10
2022-11-08T12:41:53.354Z,1.75
2022-11-08T12:44:38.663Z,1.95
2022-11-08T12:47:31.340Z,2.38
2022-11-08T12:49:57.601Z,1.77
2022-11-08T12:52:35.094Z,1.73
2022-11-08T12:55:02.966Z,2.33
2022-11-08T12:57:31.123Z,2.10
2022-11-08T13:00:08.942Z,2.30
2022-11-08T13:05:19.430Z,2.15
2022-11-08T13:08:03.423Z,2.35
2022-11-08T13:10:40.202Z,2.20
2022-11-08T13:13:18.607Z,1.95
2022-11-08T13:16:03.790Z,2.10
2022-11-08T13:18:33.913Z,2.15
2022-11-08T13:21:21.397Z,1.90
2022-11-08T13:23:49.662Z,2.55
2022-11-08T13:26:24.987Z,2.42
2022-11-08T13:28:52.273Z,2.20
2022-11-08T13:34:06.256Z,2.38
2022-11-08T13:36:51.481Z,2.28
2022-11-08T13:39:40.056Z,2.08
2022-11-08T13:42:15.423Z,1.83
2022-11-08T13:44:56.277Z,1.85
2022-11-08T13:47:31.523Z,1.95
2022-11-08T13:50:18.056Z,1.85
2022-11-08T13:52:44.668Z,1.75
2022-11-08T13:55:29.777Z,1.90
2022-11-08T13:57:57.937Z,2.05
2022-11-08T14:00:41.273Z,2.35
2022-11-08T14:03:26.704Z,1.88
2022-11-08T14:05:56.017Z,1.95
2022-11-08T14:08:24.186Z,2.20
2022-11-08T14:10:54.358Z,2.30
2022-11-08T14:13:32.360Z,1.98
2022-11-08T14:16:05.194Z,2.20
2022-11-08T14:18:32.707Z,2.45
2022-11-08T14:20:59.264Z,2.20
2022-11-08T14:23:27.857Z,2.42
2022-11-08T14:25:58.515Z,2.10
2022-11-08T14:28:26.928Z,2.25
2022-11-08T14:30:53.268Z,2.00
2022-11-08T14:33:21.235Z,2.20
2022-11-08T14:35:53.653Z,2.05
2022-11-08T14:38:19.948Z,2.30
2022-11-08T14:41:00.755Z,2.47
2022-11-08T14:43:29.462Z,2.00
2022-11-08T14:45:58.226Z,2.10
2022-11-08T14:48:29.359Z,1.98
2022-11-08T14:51:01.924Z,2.47
2022-11-08T14:53:29.784Z,2.13
2022-11-08T14:56:05.639Z,2.47
2022-11-08T14:58:31.884Z,2.42
2022-11-08T15:00:59.409Z,2.15
2022-11-08T15:03:28.394Z,2.40
2022-11-08T15:05:55.916Z,2.58
2022-11-08T15:11:00.118Z,2.38
2022-11-08T15:15:55.249Z,2.30
2022-11-08T15:18:37.023Z,2.28
2022-11-08T15:21:17.330Z,1.95
2022-11-08T15:23:51.065Z,2.13
2022-11-08T15:26:27.940Z,2.20
2022-11-08T15:28:59.946Z,2.58
2022-11-08T15:31:28.074Z,2.30
2022-11-08T15:33:54.543Z,2.30
2022-11-08T15:36:25.171Z,2.50
2022-11-08T15:38:56.666Z,2.10
2022-11-08T15:41:33.884Z,2.03
2022-11-08T15:44:12.575Z,2.38
2022-11-08T15:46:38.904Z,2.30
2022-11-08T15:49:22.087Z,2.13
2022-11-08T15:51:49.591Z,2.05
2022-11-08T15:54:17.077Z,2.60
2022-11-08T15:56:43.900Z,2.15
2022-11-08T15:59:20.039Z,2.42
2022-11-08T16:01:57.536Z,2.30
2022-11-08T16:04:24.352Z,2.22
2022-11-08T16:06:51.755Z,2.05
2022-11-08T16:09:19.447Z,2.20
2022-11-08T16:11:46.417Z,2.35
2022-11-08T16:14:15.126Z,2.50
2022-11-08T16:16:41.518Z,2.10
2022-11-08T16:19:26.000Z,1.90
2022-11-08T16:21:58.313Z,2.35
2022-11-08T16:24:24.621Z,2.42
2022-11-08T16:26:53.046Z,2.38
2022-11-08T16:29:23.697Z,2.40
2022-11-08T16:31:52.540Z,1.95
2022-11-08T16:34:22.158Z,2.15
2022-11-08T16:36:49.402Z,2.53
2022-11-08T16:39:18.110Z,2.08
2022-11-08T16:41:44.518Z,2.08
2022-11-08T16:44:11.950Z,2.70
2022-11-08T16:46:38.718Z,2.42
2022-11-08T16:49:06.035Z,2.63
2022-11-08T16:53:58.487Z,2.00
2022-11-08T16:56:24.752Z,1.92
2022-11-08T16:58:51.195Z,2.80
2022-11-08T17:01:20.833Z,2.23
2022-11-08T17:03:47.249Z,2.88
2022-11-08T17:06:14.597Z,2.25
2022-11-08T17:11:07.139Z,2.50
2022-11-08T17:13:39.133Z,2.03
2022-11-08T17:16:08.846Z,2.10
2022-11-08T17:18:35.218Z,2.10
2022-11-08T17:21:29.891Z,2.40
2022-11-08T17:23:50.801Z,2.40
2022-11-08T17:26:17.103Z,2.40
2022-11-08T17:28:43.369Z,2.17
2022-11-08T17:31:13.861Z,2.42
2022-11-08T17:33:40.275Z,2.50
2022-11-08T17:36:07.524Z,2.70
2022-11-08T17:38:35.166Z,2.30
2022-11-08T17:41:02.124Z,2.97
2022-11-08T17:43:28.431Z,2.28
2022-11-08T17:45:54.720Z,2.42
2022-11-08T17:48:21.992Z,2.50
2022-11-08T17:50:48.259Z,2.50
2022-11-08T17:53:14.546Z,2.67
2022-11-08T17:55:40.839Z,2.65
2022-11-08T17:58:07.154Z,2.30
2022-11-08T18:00:34.601Z,2.70
2022-11-08T18:03:01.052Z,2.55
2022-11-08T18:05:27.374Z,2.72
2022-11-08T18:07:53.738Z,3.15
2022-11-08T18:10:20.144Z,2.63
2022-11-08T18:12:46.426Z,3.00
2022-11-08T18:15:12.724Z,2.65
2022-11-08T18:17:39.128Z,2.72
2022-11-08T18:20:05.680Z,2.88
2022-11-08T18:22:32.729Z,3.13
2022-11-08T18:24:59.103Z,2.90
2022-11-08T18:27:25.655Z,3.03
2022-11-08T18:29:51.984Z,2.88
2022-11-08T18:32:18.330Z,3.30
2022-11-08T18:34:44.644Z,3.20
2022-11-08T18:37:10.917Z,3.47
2022-11-08T18:39:37.295Z,3.08
2022-11-08T18:42:03.682Z,2.80
2022-11-08T18:44:29.992Z,3.05
2022-11-08T18:46:56.465Z,2.50
2022-11-08T18:49:22.768Z,2.93
2022-11-08T18:51:52.030Z,3.15
2022-11-08T18:54:19.099Z,2.92
2022-11-08T18:56:46.447Z,2.53
2022-11-08T19:01:39.088Z,2.50
2022-11-08T19:04:05.440Z,2.17
2022-11-08T19:06:31.813Z,2.60
2022-11-08T19:08:58.158Z,2.70
2022-11-08T19:11:24.513Z,2.45
2022-11-08T19:13:50.949Z,2.63
2022-11-08T19:16:18.633Z,2.50
2022-11-08T19:18:45.664Z,2.70
2022-11-08T19:21:13.459Z,2.78
2022-11-08T19:23:39.941Z,2.30
2022-11-08T19:26:08.380Z,2.10
2022-11-08T19:28:36.727Z,2.22
2022-11-08T19:31:03.203Z,2.67
2022-11-08T19:33:30.367Z,2.77
2022-11-08T19:36:01.090Z,2.85
2022-11-08T19:38:27.699Z,2.17
2022-11-08T19:40:54.029Z,2.13
2022-11-08T19:43:20.597Z,2.40
2022-11-08T19:45:52.032Z,2.30
2022-11-08T19:48:18.530Z,2.40
2022-11-08T19:50:45.074Z,2.83
2022-11-08T19:53:11.430Z,2.80
2022-11-08T19:55:38.813Z,2.25
2022-11-08T19:58:05.198Z,2.00
2022-11-08T20:00:31.596Z,2.45
2022-11-08T20:02:57.919Z,2.58
2022-11-08T20:05:24.304Z,2.20
2022-11-08T20:07:51.269Z,2.67
2022-11-08T20:10:17.602Z,2.67
2022-11-08T20:12:45.980Z,2.67
2022-11-08T20:15:12.321Z,2.20
2022-11-08T20:17:38.696Z,2.42
2022-11-08T20:20:05.617Z,2.23
2022-11-08T20:22:32.022Z,2.13
2022-11-08T20:24:58.301Z,2.40
2022-11-08T20:27:24.695Z,2.67
2022-11-08T20:29:51.783Z,2.53
2022-11-08T20:32:18.073Z,2.40
2022-11-08T20:34:46.107Z,2.00
2022-11-08T20:37:14.467Z,3.03
2022-11-08T20:39:41.110Z,2.80
2022-11-08T20:42:07.434Z,3.03
2022-11-08T20:44:33.788Z,2.13
2022-11-08T20:47:05.493Z,2.72
2022-11-08T20:49:34.814Z,2.67
2022-11-08T20:52:01.170Z,2.20
2022-11-08T20:54:29.488Z,2.40
2022-11-08T20:56:55.865Z,2.15
2022-11-08T20:59:23.232Z,2.40
2022-11-08T21:01:49.670Z,2.25
2022-11-08T21:04:16.959Z,2.40
2022-11-08T21:09:34.432Z,2.40
2022-11-08T21:11:58.210Z,2.53
2022-11-08T21:17:22.454Z,2.38
2022-11-08T21:19:50.948Z,2.30
2022-11-08T21:22:18.161Z,2.10
2022-11-08T21:24:46.749Z,2.50
2022-11-08T21:27:13.608Z,2.50
2022-11-08T21:29:40.012Z,2.17
2022-11-08T21:32:06.586Z,2.47
2022-11-08T21:34:32.992Z,2.38
2022-11-08T21:36:59.583Z,2.53
2022-11-08T21:39:25.911Z,2.25
2022-11-08T21:41:52.281Z,2.13
2022-11-08T21:44:19.743Z,3.10
2022-11-08T21:46:46.031Z,2.17
2022-11-08T21:49:12.794Z,2.95
2022-11-08T21:51:39.125Z,2.40
2022-11-08T21:54:05.774Z,2.50
2022-11-08T21:56:33.555Z,2.85
2022-11-08T21:59:00.552Z,3.20
2022-11-08T22:01:30.492Z,2.40
2022-11-08T22:03:58.053Z,2.42
2022-11-08T22:06:24.312Z,2.92
2022-11-08T22:08:50.611Z,2.75
2022-11-08T22:11:16.879Z,2.38
2022-11-08T22:13:43.205Z,2.22
2022-11-08T22:16:09.534Z,2.78
2022-11-08T22:19:03.175Z,2.08
2022-11-08T22:21:37.953Z,2.03
2022-11-08T22:24:10.570Z,2.20
2022-11-08T22:26:37.405Z,2.33
2022-11-08T22:29:03.799Z,2.30
2022-11-08T22:31:30.408Z,2.33
2022-11-08T22:33:56.665Z,2.05
2022-11-08T22:36:22.956Z,2.40
2022-11-08T22:38:49.300Z,2.72
2022-11-08T22:41:19.446Z,2.05
2022-11-08T22:43:45.946Z,2.40
2022-11-08T22:46:12.732Z,2.33
2022-11-08T22:48:39.559Z,2.38
2022-11-08T22:51:06.118Z,2.10
2022-11-08T22:53:32.444Z,2.58
2022-11-08T22:56:00.806Z,2.38
2022-11-08T22:58:27.657Z,2.45
2022-11-08T23:00:54.127Z,2.42
2022-11-08T23:03:20.750Z,2.33
2022-11-08T23:05:55.694Z,2.80
2022-11-08T23:08:23.163Z,2.40
2022-11-08T23:11:08.454Z,2.13
2022-11-08T23:13:54.843Z,2.75
2022-11-08T23:16:37.441Z,2.50
2022-11-08T23:19:26.997Z,2.78
2022-11-08T23:22:12.757Z,2.13
2022-11-08T23:24:39.598Z,2.00
2022-11-08T23:27:24.466Z,2.42
2022-11-08T23:30:09.283Z,2.40
2022-11-08T23:32:35.576Z,2.25
2022-11-08T23:35:02.250Z,2.20
2022-11-08T23:37:28.522Z,2.40
2022-11-08T23:40:13.577Z,2.05
2022-11-08T23:42:58.373Z,2.42
2022-11-08T23:45:30.062Z,2.33
2022-11-08T23:47:56.362Z,2.45
2022-11-08T23:50:22.628Z,2.38
2022-11-08T23:52:48.916Z,2.30
2022-11-08T23:55:15.191Z,2.20
2022-11-08T23:57:41.439Z,2.20
